createdAt,value
2019-03-06T00:02:22.195Z,50.3
2019-03-06T00:07:27.443Z,50.3
2019-03-06T00:12:32.392Z,50.1
2019-03-06T00:17:38.056Z,49.9
2019-03-06T00:22:43.101Z,49.9
2019-03-06T00:27:49.238Z,49.8
2019-03-06T00:32:54.616Z,49.6
2019-03-06T00:38:00.831Z,49.5
2019-03-06T00:43:06.510Z,49.5
2019-03-06T00:48:12.223Z,49.5
2019-03-06T00:53:18.042Z,49.5
2019-03-06T00:58:25.025Z,49.5
2019-03-06T01:03:31.037Z,49.6
2019-03-06T01:08:37.614Z,49.6
2019-03-06T01:13:42.802Z,49.5
2019-03-06T01:18:48.216Z,49.6
2019-03-06T01:23:54.004Z,49.7
2019-03-06T01:29:00.299Z,49.7
2019-03-06T01:34:05.923Z,49.9
2019-03-06T01:39:11.678Z,50
2019-03-06T01:44:16.702Z,50.1
2019-03-06T01:49:23.155Z,50.2
2019-03-06T01:54:28.801Z,50.2
2019-03-06T01:59:34.820Z,50.1
2019-03-06T02:04:40.296Z,50.2
2019-03-06T02:09:46.108Z,50.2
2019-03-06T02:14:51.637Z,50.2
2019-03-06T02:19:57.601Z,50.3
2019-03-06T02:25:03.153Z,50.3
2019-03-06T02:30:08.673Z,50.3
2019-03-06T02:35:13.808Z,50.3
2019-03-06T02:40:19.609Z,50.3
2019-03-06T02:45:25.289Z,50.3
2019-03-06T02:50:31.569Z,50.3
2019-03-06T02:55:37.197Z,50.3
2019-03-06T03:00:43.564Z,50.3
2019-03-06T03:05:48.806Z,50.3
2019-03-06T03:10:54.645Z,50.4
2019-03-06T03:16:00.253Z,50.3
2019-03-06T03:21:05.938Z,50.3
2019-03-06T03:26:11.384Z,50.3
2019-03-06T03:31:16.589Z,50.3
2019-03-06T03:36:21.723Z,50.3
2019-03-06T03:41:27.554Z,50.3
2019-03-06T03:46:32.646Z,50.3
2019-03-06T03:51:38.554Z,50.4
2019-03-06T03:56:43.631Z,50.2
2019-03-06T04:06:53.632Z,50.3
2019-03-06T04:11:59.708Z,50.2
2019-03-06T04:17:05.288Z,50.2
2019-03-06T04:22:11.210Z,50.3
2019-03-06T04:27:15.446Z,50.3
2019-03-06T04:32:20.582Z,50.4
2019-03-06T04:37:25.498Z,50.4
2019-03-06T04:42:31.296Z,50.4
2019-03-06T04:52:40.287Z,50.4
2019-03-06T04:57:46.130Z,50.2
2019-03-06T05:02:52.103Z,50.1
2019-03-06T05:07:57.916Z,50.2
2019-03-06T05:13:04.202Z,50
2019-03-06T05:18:09.530Z,49.9
2019-03-06T05:23:15.087Z,50.3
2019-03-06T05:28:20.279Z,50.5
2019-03-06T05:33:26.283Z,50.2
2019-03-06T05:38:31.636Z,50
2019-03-06T05:43:36.989Z,49.9
2019-03-06T05:53:47.552Z,49.8
2019-03-06T05:58:52.441Z,49.6
2019-03-06T06:03:57.609Z,49.5
2019-03-06T06:09:07.987Z,49.4
2019-03-06T06:14:13.767Z,49.4
2019-03-06T06:19:19.247Z,49.3
2019-03-06T06:24:24.362Z,49.1
2019-03-06T06:29:29.341Z,49.1
2019-03-06T06:34:34.604Z,49.1
2019-03-06T06:39:40.580Z,49
2019-03-06T06:44:46.705Z,49
2019-03-06T06:54:57.441Z,50
2019-03-06T07:00:03.151Z,50.1
2019-03-06T07:05:08.758Z,50.9
2019-03-06T07:10:13.829Z,51
2019-03-06T07:15:19.639Z,51.1
2019-03-06T07:20:25.110Z,51.2
2019-03-06T07:25:30.517Z,51.2
2019-03-06T07:30:36.032Z,51.3
2019-03-06T07:35:42.310Z,51.4
2019-03-06T07:40:48.283Z,51.2
2019-03-06T07:45:53.840Z,51.3
2019-03-06T07:50:59.484Z,51.2
2019-03-06T07:56:05.851Z,51.1
2019-03-06T08:01:21.932Z,51
2019-03-06T08:06:18.369Z,51.1
2019-03-06T08:11:23.555Z,51.1
2019-03-06T08:16:29.828Z,47.4
2019-03-06T08:21:35.492Z,48.7
2019-03-06T08:26:40.752Z,48.8
2019-03-06T08:36:51.277Z,49.2
2019-03-06T08:41:57.266Z,49.4
2019-03-06T08:47:03.204Z,49.6
2019-03-06T08:52:08.309Z,49.5
2019-03-06T08:57:14.026Z,49
2019-03-06T09:07:21.394Z,47.7
2019-03-06T09:12:28.665Z,47.3
2019-03-06T09:17:34.912Z,47.2
2019-03-06T09:22:38.962Z,47
2019-03-06T09:27:44.612Z,46.9
2019-03-06T09:32:50.395Z,46.3
2019-03-06T09:37:55.852Z,46.1
2019-03-06T09:43:02.237Z,46.4
2019-03-06T09:48:07.871Z,46.4
2019-03-06T09:53:14.011Z,46.5
2019-03-06T09:58:19.364Z,46.5
2019-03-06T10:03:25.188Z,46.7
2019-03-06T10:08:30.547Z,47
2019-03-06T10:13:42.699Z,47.1
2019-03-06T10:18:38.814Z,47.6
2019-03-06T10:23:44.489Z,47.8
2019-03-06T10:28:50.936Z,48.1
2019-03-06T10:33:56.722Z,48.1
2019-03-06T10:39:02.720Z,48.3
2019-03-06T10:44:08.255Z,48.4
2019-03-06T10:49:13.572Z,48.5
2019-03-06T10:54:19.955Z,48.7
2019-03-06T10:59:26.012Z,48.7
2019-03-06T11:04:31.090Z,48.7
2019-03-06T11:14:42.045Z,49.3
2019-03-06T11:19:47.767Z,49.3
2019-03-06T11:24:54.080Z,49.1
2019-03-06T11:30:01.570Z,49.1
2019-03-06T11:35:07.231Z,49.1
2019-03-06T11:40:13.000Z,49.4
2019-03-06T11:45:18.140Z,49.2
2019-03-06T11:50:23.472Z,48.7
2019-03-06T11:55:29.284Z,48.1
2019-03-06T12:00:35.585Z,47.1
2019-03-06T12:05:41.806Z,46.5
2019-03-06T12:10:47.423Z,45.8
2019-03-06T12:15:53.196Z,45.8
2019-03-06T12:20:58.864Z,40.9
2019-03-06T12:26:04.697Z,42.2
2019-03-06T12:31:10.064Z,41.7
2019-03-06T12:36:15.871Z,41.5
2019-03-06T12:41:20.415Z,41.9
2019-03-06T12:46:27.224Z,43.4
2019-03-06T12:51:33.040Z,43.4
2019-03-06T12:56:38.240Z,44.1
2019-03-06T13:01:44.091Z,44.8
2019-03-06T13:06:49.488Z,45.7
2019-03-06T13:11:56.321Z,46.2
2019-03-06T13:17:02.008Z,46.2
2019-03-06T13:22:15.700Z,46.9
2019-03-06T13:27:12.994Z,46.9
2019-03-06T13:32:18.537Z,47.1
2019-03-06T13:37:24.343Z,47.4
2019-03-06T13:42:30.372Z,47.7
2019-03-06T13:47:35.550Z,48
2019-03-06T13:52:41.267Z,48.3
2019-03-06T13:57:48.141Z,48.6
2019-03-06T14:02:53.621Z,48.6
2019-03-06T14:07:59.749Z,49.6
2019-03-06T14:13:06.062Z,49.1
2019-03-06T14:18:11.405Z,49.1
2019-03-06T14:23:17.083Z,49
2019-03-06T14:28:23.052Z,48.8
2019-03-06T14:33:28.703Z,47.4
2019-03-06T14:38:34.382Z,47.5
2019-03-06T14:43:41.384Z,47.9
2019-03-06T14:48:47.564Z,47.9
2019-03-06T14:53:54.200Z,48.2
2019-03-06T14:59:00.140Z,48.2
2019-03-06T15:04:05.702Z,48.2
2019-03-06T15:09:10.869Z,48.6
2019-03-06T15:14:17.377Z,49
2019-03-06T15:19:23.154Z,48.7
2019-03-06T15:24:29.703Z,48.9
2019-03-06T15:29:35.690Z,48.9
2019-03-06T15:34:41.234Z,47.7
2019-03-06T15:39:51.362Z,44.8
2019-03-06T15:44:55.763Z,44.8
2019-03-06T15:50:02.041Z,45.8
2019-03-06T15:55:08.659Z,45.8
2019-03-06T16:00:14.193Z,46.4
2019-03-06T16:05:20.296Z,46.7
2019-03-06T16:10:25.945Z,47
2019-03-06T16:15:31.104Z,46.8
2019-03-06T16:20:40.961Z,47.5
2019-03-06T16:30:50.015Z,47.3
2019-03-06T16:35:55.857Z,47.4
2019-03-06T16:41:02.008Z,47.3
2019-03-06T16:46:07.044Z,45.5
2019-03-06T16:51:13.001Z,45.5
2019-03-06T16:56:19.734Z,46.7
2019-03-06T17:01:25.426Z,46.7
2019-03-06T17:06:35.285Z,46.9
2019-03-06T17:11:41.514Z,47.2
2019-03-06T17:16:48.178Z,47.4
2019-03-06T17:21:54.026Z,47.5
2019-03-06T17:27:00.814Z,47.6
2019-03-06T17:32:06.174Z,47.7
2019-03-06T17:37:12.369Z,47.9
2019-03-06T17:42:17.823Z,47.9
2019-03-06T17:47:23.992Z,48
2019-03-06T17:52:30.405Z,48.1
2019-03-06T17:57:36.310Z,48.2
2019-03-06T18:02:42.249Z,48.3
2019-03-06T18:12:53.505Z,48.5
2019-03-06T18:17:59.517Z,48.7
2019-03-06T18:23:04.600Z,48.9
2019-03-06T18:28:10.564Z,48.9
2019-03-06T18:33:15.817Z,49.1
2019-03-06T18:38:22.397Z,49.3
2019-03-06T18:43:27.692Z,49.2
2019-03-06T18:48:33.179Z,49.4
2019-03-06T18:53:38.773Z,49.2
2019-03-06T18:58:44.468Z,49.5
2019-03-06T19:03:49.918Z,49.5
2019-03-06T19:08:55.747Z,49.5
2019-03-06T19:14:01.750Z,34
2019-03-06T19:19:07.208Z,34
2019-03-06T19:24:13.064Z,35.8
2019-03-06T19:29:18.424Z,35.7
2019-03-06T19:34:24.112Z,37.8
2019-03-06T19:39:30.057Z,38.9
2019-03-06T19:44:35.550Z,40.1
2019-03-06T19:49:42.017Z,45.4
2019-03-06T19:54:48.917Z,45.3
2019-03-06T19:59:56.100Z,46.2
2019-03-06T20:05:02.662Z,46.3
2019-03-06T20:10:09.324Z,47.2
2019-03-06T20:15:14.676Z,47.2
2019-03-06T20:20:20.959Z,47.3
2019-03-06T20:25:26.542Z,47.5
2019-03-06T20:30:32.692Z,47.4
2019-03-06T20:35:37.836Z,47.1
2019-03-06T20:40:47.461Z,47.3
2019-03-06T20:45:54.260Z,47.4
2019-03-06T20:51:00.583Z,47.7
2019-03-06T20:56:06.156Z,47.7
2019-03-06T21:01:10.611Z,47.8
2019-03-06T21:06:16.560Z,48.2
